Time;durP1;ratioP1;P1;durP2;ratioP2;P2;SDS_P1;SDS_P2;PMS_P1;PMS_P2;Temp;Humidity;BMP_temperature;BMP_pressure;BME280_temperature;BME280_humidity;BME280_pressure;Samples;Min_cycle;Max_cycle;Signal;HPM_P1;HPM_P2
2022/06/01 00:00:54;;;;;;;;;;;;;;;;;;336411;159;855989;-58
2022/06/01 00:01:56;;;;;;;;;;;;;;;;;;341412;156;855842;-58
2022/06/01 00:02:57;;;;;;;;;;;;;;;;;;335300;159;855281;-58
2022/06/01 00:03:58;;;;;;;;;;;;;;;;;;335824;159;856037;-57
2022/06/01 00:05:00;;;;;;;;;;;;;;;;;;335139;159;855846;-57
2022/06/01 00:06:01;;;;;;;;;;;;;;;;;;335965;159;857674;-58
2022/06/01 00:07:02;;;;;;;;;;;;;;;;;;336058;159;855778;-58
2022/06/01 00:08:04;;;;;;;;;;;;;;;;;;335020;158;855869;-58
2022/06/01 00:09:05;;;;;;;;;;;;;;;;;;342925;155;857004;-58
2022/06/01 00:10:06;;;;;;;;;;;;;;;;;;340916;156;855850;-57
2022/06/01 00:11:08;;;;;;;;;;;;;;;;;;341404;156;855975;-58
2022/06/01 00:12:11;;;;;;;;;;;;;;;;;;342340;155;855956;-57
2022/06/01 00:13:12;;;;;;;;;;;;;;;;;;342569;156;857642;-58
2022/06/01 00:14:14;;;;;;;;;;;;;;;;;;340356;155;857265;-58
2022/06/01 00:15:15;;;;;;;;;;;;;;;;;;337516;157;856216;-57
2022/06/01 00:16:17;;;;;;;;;;;;;;;;;;335107;160;856059;-58
2022/06/01 00:17:20;;;;;;;;;;;;;;;;;;338750;158;855946;-58
2022/06/01 00:18:22;;;;;;;;;;;;;;;;;;335168;158;855860;-57
2022/06/01 00:19:23;;;;;;;;;;;;;;;;;;338543;159;855980;-57
2022/06/01 00:20:24;;;;;;;;;;;;;;;;;;338382;158;855261;-58
2022/06/01 00:21:26;;;;;;;;;;;;;;;;;;338400;158;855895;-58
2022/06/01 00:22:27;;;;;;;;;;;;;;;;;;335821;159;856986;-58
2022/06/01 00:23:28;;;;;;;;;;;;;;;;;;332752;158;855822;-58
2022/06/01 00:24:30;;;;;;;;;;;;;;;;;;335546;159;857503;-58
2022/06/01 00:25:31;;;;;;;;;;;;;;;;;;335597;158;855700;-58
2022/06/01 00:26:32;;;;;;;;;;;;;;;;;;339199;156;855774;-58
2022/06/01 00:27:34;;;;;;;;;;;;;;;;;;335813;160;857081;-58
2022/06/01 00:28:35;;;;;;;;;;;;;;;;;;335724;158;856053;-58
2022/06/01 00:29:37;;;;;;;;;;;;;;;;;;338570;159;857543;-60
2022/06/01 00:30:38;;;;;;;;;;;;;;;;;;338866;157;856345;-58
2022/06/01 00:31:39;;;;;;;;;;;;;;;;;;338526;157;855890;-57
2022/06/01 00:32:41;;;;;;;;;;;;;;;;;;342045;156;856440;-58
2022/06/01 00:33:42;;;;;;;;;;;;;;;;;;334704;158;855865;-57
2022/06/01 00:34:44;;;;;;;;;;;;;;;;;;336325;158;855818;-58
2022/06/01 00:35:45;;;;;;;;;;;;;;;;;;342078;156;856584;-58
2022/06/01 00:36:47;;;;;;;;;;;;;;;;;;341520;159;855879;-58
2022/06/01 00:37:48;;;;;;;;;;;;;;;;;;341002;156;857723;-58
2022/06/01 00:38:50;;;;;;;;;;;;;;;;;;341239;155;855916;-58
2022/06/01 00:39:53;;;;;;;;;;;;;;;;;;337750;157;855923;-58
2022/06/01 00:40:54;;;;;;;;;;;;;;;;;;333321;158;856464;-58
2022/06/01 00:41:56;;;;;;;;;;;;;;;;;;333971;158;857022;-58
2022/06/01 00:42:58;;;;;;;;;;;;;;;;;;336529;157;855836;-58
2022/06/01 00:43:59;;;;;;;;;;;;;;;;;;337265;158;855837;-58
2022/06/01 00:45:00;;;;;;;;;;;;;;;;;;336697;158;857369;-57
2022/06/01 00:46:01;;;;;;;;;;;;;;;;;;341008;156;855736;-57
2022/06/01 00:47:03;;;;;;;;;;;;;;;;;;341556;157;855910;-58
2022/06/01 00:48:04;;;;;;;;;;;;;;;;;;334284;160;855807;-57
2022/06/01 00:49:05;;;;;;;;;;;;;;;;;;332737;158;857623;-58
2022/06/01 00:50:07;;;;;;;;;;;;;;;;;;335212;159;856411;-58
2022/06/01 00:51:08;;;;;;;;;;;;;;;;;;338185;159;855859;-56
2022/06/01 00:52:09;;;;;;;;;;;;;;;;;;337086;156;857630;-58
2022/06/01 00:53:11;;;;;;;;;;;;;;;;;;336266;159;856010;-57
2022/06/01 00:54:12;;;;;;;;;;;;;;;;;;335066;159;857621;-57
2022/06/01 00:55:14;;;;;;;;;;;;;;;;;;335095;161;856383;-58
2022/06/01 00:56:15;;;;;;;;;;;;;;;;;;341147;157;856042;-57
2022/06/01 00:57:16;;;;;;;;;;;;;;;;;;332826;158;855933;-58
2022/06/01 00:58:18;;;;;;;;;;;;;;;;;;335659;158;855919;-58
2022/06/01 00:59:20;;;;;;;;;;;;;;;;;;335511;158;855866;-58
2022/06/01 01:00:21;;;;;;;;;;;;;;;;;;342085;156;856509;-58
2022/06/01 01:01:22;;;;;;;;;;;;;;;;;;333395;159;855842;-57
2022/06/01 01:02:24;;;;;;;;;;;;;;;;;;335071;162;857677;-58
2022/06/01 01:03:26;;;;;;;;;;;;;;;;;;339168;158;855357;-57
2022/06/01 01:04:27;;;;;;;;;;;;;;;;;;334345;158;855900;-58
2022/06/01 01:05:29;;;;;;;;;;;;;;;;;;334687;159;857476;-57
2022/06/01 01:06:31;;;;;;;;;;;;;;;;;;336292;156;856216;-57
2022/06/01 01:07:32;;;;;;;;;;;;;;;;;;338865;157;855799;-57
2022/06/01 01:08:34;;;;;;;;;;;;;;;;;;335367;161;856149;-58
2022/06/01 01:09:35;;;;;;;;;;;;;;;;;;333933;158;855537;-58
2022/06/01 01:10:37;;;;;;;;;;;;;;;;;;335272;159;855824;-57
2022/06/01 01:11:38;;;;;;;;;;;;;;;;;;341469;157;855957;-57
2022/06/01 01:14:00;;;;;;;;;;;;;;;;;;340653;157;855835;-59
2022/06/01 01:15:01;;;;;;;;;;;;;;;;;;339267;157;855856;-60
2022/06/01 01:16:02;;;;;;;;;;;;;;;;;;334846;158;855933;-60
2022/06/01 01:17:04;;;;;;;;;;;;;;;;;;334755;161;857217;-58
2022/06/01 01:18:06;;;;;;;;;;;;;;;;;;332015;158;855932;-58
2022/06/01 01:19:07;;;;;;;;;;;;;;;;;;334369;158;855877;-58
2022/06/01 01:20:09;;;;;;;;;;;;;;;;;;335788;158;857731;-58
2022/06/01 01:21:10;;;;;;;;;;;;;;;;;;335285;161;855809;-58
2022/06/01 01:22:12;;;;;;;;;;;;;;;;;;335564;161;855874;-58
2022/06/01 01:23:13;;;;;;;;;;;;;;;;;;332327;159;855993;-58
2022/06/01 01:24:15;;;;;;;;;;;;;;;;;;335041;158;855917;-58
2022/06/01 01:25:17;;;;;;;;;;;;;;;;;;335660;159;857525;-58
2022/06/01 01:26:18;;;;;;;;;;;;;;;;;;341464;158;856945;-58
2022/06/01 01:27:19;;;;;;;;;;;;;;;;;;335007;161;856866;-58
2022/06/01 01:28:20;;;;;;;;;;;;;;;;;;339272;158;856160;-58
2022/06/01 01:29:22;;;;;;;;;;;;;;;;;;332306;159;855975;-58
2022/06/01 01:30:23;;;;;;;;;;;;;;;;;;340137;157;857662;-58
2022/06/01 01:31:24;;;;;;;;;;;;;;;;;;339887;157;856010;-58
2022/06/01 01:32:26;;;;;;;;;;;;;;;;;;340168;156;855854;-57
2022/06/01 01:33:28;;;;;;;;;;;;;;;;;;339418;156;855771;-57
2022/06/01 01:34:30;;;;;;;;;;;;;;;;;;338562;157;855815;-57
2022/06/01 01:35:31;;;;;;;;;;;;;;;;;;338990;157;855797;-58
2022/06/01 01:36:33;;;;;;;;;;;;;;;;;;339144;157;855587;-58
2022/06/01 01:37:35;;;;;;;;;;;;;;;;;;335882;160;856231;-57
2022/06/01 01:38:36;;;;;;;;;;;;;;;;;;337403;157;856008;-58
2022/06/01 01:39:37;;;;;;;;;;;;;;;;;;335389;161;855828;-57
2022/06/01 01:40:39;;;;;;;;;;;;;;;;;;335426;161;855092;-58
2022/06/01 01:41:40;;;;;;;;;;;;;;;;;;342104;156;855815;-58
2022/06/01 01:42:42;;;;;;;;;;;;;;;;;;335116;158;855749;-57
2022/06/01 01:43:43;;;;;;;;;;;;;;;;;;335318;161;856820;-57
2022/06/01 01:44:44;;;;;;;;;;;;;;;;;;334296;161;856442;-57
2022/06/01 01:45:46;;;;;;;;;;;;;;;;;;339361;158;855860;-56
2022/06/01 01:46:47;;;;;;;;;;;;;;;;;;339358;158;855864;-57
2022/06/01 01:47:49;;;;;;;;;;;;;;;;;;340082;158;856368;-57
2022/06/01 01:48:50;;;;;;;;;;;;;;;;;;340930;157;855785;-60
2022/06/01 01:49:51;;;;;;;;;;;;;;;;;;337383;158;855800;-60
2022/06/01 01:50:54;;;;;;;;;;;;;;;;;;333929;160;855852;-60
2022/06/01 01:51:55;;;;;;;;;;;;;;;;;;334132;159;857187;-58
2022/06/01 01:52:56;;;;;;;;;;;;;;;;;;336162;160;855875;-57
2022/06/01 01:53:59;;;;;;;;;;;;;;;;;;336978;158;857467;-58
2022/06/01 01:55:00;;;;;;;;;;;;;;;;;;335492;158;857382;-60
2022/06/01 01:56:02;;;;;;;;;;;;;;;;;;337247;158;856409;-59
2022/06/01 01:57:03;;;;;;;;;;;;;;;;;;331222;162;855732;-58
2022/06/01 01:58:04;;;;;;;;;;;;;;;;;;332315;160;856754;-58
2022/06/01 01:59:06;;;;;;;;;;;;;;;;;;330825;161;855921;-58
2022/06/01 02:00:09;;;;;;;;;;;;;;;;;;332004;161;856534;-57
2022/06/01 02:01:11;;;;;;;;;;;;;;;;;;331813;160;855858;-57
2022/06/01 02:02:13;;;;;;;;;;;;;;;;;;332432;160;855993;-57
2022/06/01 02:03:14;;;;;;;;;;;;;;;;;;330783;163;856518;-57
2022/06/01 02:06:55;;;;;;;;;;;;;;;;;;330964;160;855802;-58
2022/06/01 02:07:56;;;;;;;;;;;;;;;;;;336140;158;855809;-58
2022/06/01 02:08:58;;;;;;;;;;;;;;;;;;335011;158;855487;-58
2022/06/01 02:12:41;;;;;;;;;;;;;;;;;;331953;160;855777;-60
2022/06/01 02:13:43;;;;;;;;;;;;;;;;;;329427;161;855394;-60
2022/06/01 02:14:45;;;;;;;;;;;;;;;;;;330559;162;855861;-57
2022/06/01 02:15:46;;;;;;;;;;;;;;;;;;331296;160;855919;-57
2022/06/01 02:16:47;;;;;;;;;;;;;;;;;;331034;162;855814;-57
2022/06/01 02:17:49;;;;;;;;;;;;;;;;;;332981;160;858499;-57
2022/06/01 02:18:51;;;;;;;;;;;;;;;;;;330804;160;855903;-58
2022/06/01 02:19:52;;;;;;;;;;;;;;;;;;332360;160;855852;-57
2022/06/01 02:20:53;;;;;;;;;;;;;;;;;;333800;159;857082;-60
2022/06/01 02:21:55;;;;;;;;;;;;;;;;;;333868;160;855876;-60
2022/06/01 02:22:56;;;;;;;;;;;;;;;;;;330733;160;855834;-60
2022/06/01 02:23:58;;;;;;;;;;;;;;;;;;336184;158;855265;-60
2022/06/01 02:24:59;;;;;;;;;;;;;;;;;;336799;157;855860;-57
2022/06/01 02:26:03;;;;;;;;;;;;;;;;;;338922;158;855923;-59
2022/06/01 02:27:04;;;;;;;;;;;;;;;;;;330752;160;855868;-57
2022/06/01 02:28:05;;;;;;;;;;;;;;;;;;332662;160;855955;-60
2022/06/01 02:29:07;;;;;;;;;;;;;;;;;;330303;162;857074;-60
2022/06/01 02:30:09;;;;;;;;;;;;;;;;;;334781;161;855852;-59
2022/06/01 02:31:10;;;;;;;;;;;;;;;;;;332971;159;857870;-58
2022/06/01 02:32:12;;;;;;;;;;;;;;;;;;334806;161;855994;-58
2022/06/01 02:33:13;;;;;;;;;;;;;;;;;;332463;159;855881;-58
2022/06/01 02:34:14;;;;;;;;;;;;;;;;;;333705;160;855862;-58
2022/06/01 02:35:16;;;;;;;;;;;;;;;;;;333418;159;855853;-58
2022/06/01 02:36:17;;;;;;;;;;;;;;;;;;333567;160;857233;-58
2022/06/01 02:37:18;;;;;;;;;;;;;;;;;;334049;160;855991;-58
2022/06/01 02:38:20;;;;;;;;;;;;;;;;;;334096;159;855874;-58
2022/06/01 02:39:21;;;;;;;;;;;;;;;;;;333126;159;856875;-59
2022/06/01 02:40:23;;;;;;;;;;;;;;;;;;333834;160;855965;-58
2022/06/01 02:42:45;;;;;;;;;;;;;;;;;;333916;159;855941;-57
2022/06/01 02:43:46;;;;;;;;;;;;;;;;;;333311;160;857608;-57
2022/06/01 02:44:48;;;;;;;;;;;;;;;;;;333877;160;855988;-59
2022/06/01 02:45:49;;;;;;;;;;;;;;;;;;334452;160;855822;-58
2022/06/01 02:46:50;;;;;;;;;;;;;;;;;;333858;161;856516;-58
2022/06/01 02:47:55;;;;;;;;;;;;;;;;;;333815;160;855857;-58
2022/06/01 02:48:56;;;;;;;;;;;;;;;;;;333708;160;855294;-58
2022/06/01 02:49:58;;;;;;;;;;;;;;;;;;334143;159;855908;-58
2022/06/01 02:51:00;;;;;;;;;;;;;;;;;;332772;160;856185;-58
2022/06/01 02:52:02;;;;;;;;;;;;;;;;;;333704;161;855885;-58
2022/06/01 02:53:04;;;;;;;;;;;;;;;;;;334293;161;855704;-59
2022/06/01 02:54:06;;;;;;;;;;;;;;;;;;335301;159;856197;-59
2022/06/01 02:55:08;;;;;;;;;;;;;;;;;;337397;158;856635;-59
2022/06/01 02:56:11;;;;;;;;;;;;;;;;;;338147;158;855813;-59
2022/06/01 02:57:14;;;;;;;;;;;;;;;;;;339171;159;855878;-59
2022/06/01 02:58:16;;;;;;;;;;;;;;;;;;338347;158;855858;-59
2022/06/01 02:59:18;;;;;;;;;;;;;;;;;;337096;157;855950;-60
2022/06/01 03:00:19;;;;;;;;;;;;;;;;;;338663;158;856850;-57
2022/06/01 03:01:21;;;;;;;;;;;;;;;;;;338647;157;858013;-58
2022/06/01 03:02:23;;;;;;;;;;;;;;;;;;338715;158;856043;-58
2022/06/01 03:03:24;;;;;;;;;;;;;;;;;;339267;157;857754;-58
2022/06/01 03:04:26;;;;;;;;;;;;;;;;;;338580;158;855092;-58
2022/06/01 03:05:28;;;;;;;;;;;;;;;;;;338879;158;855922;-59
2022/06/01 03:06:29;;;;;;;;;;;;;;;;;;338263;158;857788;-58
2022/06/01 03:07:32;;;;;;;;;;;;;;;;;;337963;159;855129;-59
2022/06/01 03:08:33;;;;;;;;;;;;;;;;;;339309;158;855801;-58
2022/06/01 03:09:35;;;;;;;;;;;;;;;;;;339179;158;855786;-58
2022/06/01 03:10:36;;;;;;;;;;;;;;;;;;338004;157;855166;-59
2022/06/01 03:11:37;;;;;;;;;;;;;;;;;;337487;157;855078;-58
2022/06/01 03:12:39;;;;;;;;;;;;;;;;;;337437;158;854946;-58
2022/06/01 03:13:40;;;;;;;;;;;;;;;;;;338283;158;855304;-59
2022/06/01 03:14:41;;;;;;;;;;;;;;;;;;337948;157;854977;-58
2022/06/01 03:15:43;;;;;;;;;;;;;;;;;;336249;157;855621;-58
2022/06/01 03:16:44;;;;;;;;;;;;;;;;;;338920;158;855166;-57
2022/06/01 03:17:46;;;;;;;;;;;;;;;;;;338030;158;855884;-57
2022/06/01 03:18:47;;;;;;;;;;;;;;;;;;339226;159;855087;-57
2022/06/01 03:19:48;;;;;;;;;;;;;;;;;;338832;157;855384;-59
2022/06/01 03:20:49;;;;;;;;;;;;;;;;;;337619;157;856321;-58
2022/06/01 03:21:51;;;;;;;;;;;;;;;;;;339007;157;854950;-59
2022/06/01 03:22:52;;;;;;;;;;;;;;;;;;339133;158;855876;-58
2022/06/01 03:23:55;;;;;;;;;;;;;;;;;;336781;158;855781;-58
2022/06/01 03:24:57;;;;;;;;;;;;;;;;;;338521;158;855721;-58
2022/06/01 03:25:58;;;;;;;;;;;;;;;;;;339422;157;855249;-56
2022/06/01 03:27:04;;;;;;;;;;;;;;;;;;336831;157;855302;-56
2022/06/01 03:28:02;;;;;;;;;;;;;;;;;;338041;157;855848;-57
2022/06/01 03:29:04;;;;;;;;;;;;;;;;;;338042;157;855894;-56
2022/06/01 03:30:06;;;;;;;;;;;;;;;;;;338531;157;858125;-58
2022/06/01 03:31:07;;;;;;;;;;;;;;;;;;337986;158;855886;-58
2022/06/01 03:32:09;;;;;;;;;;;;;;;;;;339481;157;855840;-58
2022/06/01 03:33:10;;;;;;;;;;;;;;;;;;339887;157;855027;-59
2022/06/01 03:34:11;;;;;;;;;;;;;;;;;;339416;158;855024;-60
2022/06/01 03:35:12;;;;;;;;;;;;;;;;;;339112;157;855012;-58
2022/06/01 03:36:15;;;;;;;;;;;;;;;;;;338743;157;855126;-58
2022/06/01 03:37:16;;;;;;;;;;;;;;;;;;339430;158;855016;-58
2022/06/01 03:38:18;;;;;;;;;;;;;;;;;;339115;157;855170;-58
2022/06/01 03:39:19;;;;;;;;;;;;;;;;;;339591;158;855073;-58
2022/06/01 03:40:20;;;;;;;;;;;;;;;;;;340204;158;855105;-56
2022/06/01 03:41:22;;;;;;;;;;;;;;;;;;338876;157;855071;-58
2022/06/01 03:42:24;;;;;;;;;;;;;;;;;;339287;158;855556;-58
2022/06/01 03:43:25;;;;;;;;;;;;;;;;;;339419;157;855171;-57
2022/06/01 03:45:55;;;;;;;;;;;;;;;;;;339958;157;854963;-58
2022/06/01 03:46:58;;;;;;;;;;;;;;;;;;338331;158;855399;-58
2022/06/01 03:47:59;;;;;;;;;;;;;;;;;;339691;158;855229;-58
2022/06/01 03:49:01;;;;;;;;;;;;;;;;;;339716;157;854831;-57
2022/06/01 03:50:03;;;;;;;;;;;;;;;;;;339314;159;855785;-57
2022/06/01 03:51:04;;;;;;;;;;;;;;;;;;336863;159;854945;-59
2022/06/01 03:52:06;;;;;;;;;;;;;;;;;;337402;158;854869;-57
2022/06/01 03:53:07;;;;;;;;;;;;;;;;;;337566;157;854828;-58
2022/06/01 03:54:09;;;;;;;;;;;;;;;;;;338724;158;854877;-58
2022/06/01 03:55:11;;;;;;;;;;;;;;;;;;337334;157;854972;-58
2022/06/01 03:56:13;;;;;;;;;;;;;;;;;;337893;159;855133;-58
2022/06/01 03:57:15;;;;;;;;;;;;;;;;;;337892;157;855099;-58
2022/06/01 03:58:16;;;;;;;;;;;;;;;;;;338701;159;854912;-58
2022/06/01 03:59:17;;;;;;;;;;;;;;;;;;338568;157;855229;-58
2022/06/01 04:00:21;;;;;;;;;;;;;;;;;;338877;157;855970;-57
2022/06/01 04:01:22;;;;;;;;;;;;;;;;;;332569;160;856075;-58
2022/06/01 04:02:24;;;;;;;;;;;;;;;;;;332462;160;855326;-59
2022/06/01 04:03:25;;;;;;;;;;;;;;;;;;337118;157;855209;-58
2022/06/01 04:04:26;;;;;;;;;;;;;;;;;;336397;157;857142;-55
2022/06/01 04:05:27;;;;;;;;;;;;;;;;;;338391;157;856745;-55
2022/06/01 04:06:30;;;;;;;;;;;;;;;;;;336641;157;856648;-62
2022/06/01 04:07:32;;;;;;;;;;;;;;;;;;337952;157;855839;-59
2022/06/01 04:08:33;;;;;;;;;;;;;;;;;;341261;157;855815;-60
2022/06/01 04:09:34;;;;;;;;;;;;;;;;;;342279;156;856243;-63
2022/06/01 04:10:35;;;;;;;;;;;;;;;;;;343201;156;855841;-58
2022/06/01 04:11:37;;;;;;;;;;;;;;;;;;337074;158;857568;-58
2022/06/01 04:12:38;;;;;;;;;;;;;;;;;;335019;158;855868;-61
2022/06/01 04:13:40;;;;;;;;;;;;;;;;;;338603;158;854997;-59
2022/06/01 04:14:41;;;;;;;;;;;;;;;;;;336711;158;855268;-59
2022/06/01 04:15:42;;;;;;;;;;;;;;;;;;338711;157;855782;-60
2022/06/01 04:16:44;;;;;;;;;;;;;;;;;;335555;159;855034;-60
2022/06/01 04:17:45;;;;;;;;;;;;;;;;;;333475;161;855941;-62
2022/06/01 04:18:46;;;;;;;;;;;;;;;;;;333148;161;857970;-58
2022/06/01 04:19:48;;;;;;;;;;;;;;;;;;336958;160;855808;-64
2022/06/01 04:20:49;;;;;;;;;;;;;;;;;;335748;157;855862;-59
2022/06/01 04:21:51;;;;;;;;;;;;;;;;;;336676;160;857201;-59
2022/06/01 04:22:55;;;;;;;;;;;;;;;;;;336247;160;855813;-58
2022/06/01 04:23:57;;;;;;;;;;;;;;;;;;338363;157;857686;-60
2022/06/01 04:24:58;;;;;;;;;;;;;;;;;;338626;160;855857;-59
2022/06/01 04:26:00;;;;;;;;;;;;;;;;;;342804;157;855858;-59
2022/06/01 04:27:01;;;;;;;;;;;;;;;;;;337535;157;857098;-60
2022/06/01 04:28:02;;;;;;;;;;;;;;;;;;343027;157;855734;-65
2022/06/01 04:29:04;;;;;;;;;;;;;;;;;;340285;157;857382;-61
2022/06/01 04:30:05;;;;;;;;;;;;;;;;;;338995;160;857178;-60
2022/06/01 04:31:06;;;;;;;;;;;;;;;;;;338447;157;855882;-59
2022/06/01 04:32:08;;;;;;;;;;;;;;;;;;336377;157;857904;-58
2022/06/01 04:33:09;;;;;;;;;;;;;;;;;;339318;157;855840;-59
2022/06/01 04:34:10;;;;;;;;;;;;;;;;;;339173;157;858117;-59
2022/06/01 04:35:12;;;;;;;;;;;;;;;;;;335597;157;855872;-58
2022/06/01 04:36:13;;;;;;;;;;;;;;;;;;338848;160;855837;-59
2022/06/01 04:37:14;;;;;;;;;;;;;;;;;;339475;157;856991;-58
2022/06/01 04:38:18;;;;;;;;;;;;;;;;;;339490;157;855858;-59
2022/06/01 04:39:19;;;;;;;;;;;;;;;;;;339511;157;858118;-57
2022/06/01 04:40:30;;;;;;;;;;;;;;;;;;339294;160;855975;-58
2022/06/01 04:41:37;;;;;;;;;;;;;;;;;;338575;157;855953;-58
2022/06/01 04:42:39;;;;;;;;;;;;;;;;;;338697;157;855240;-57
2022/06/01 04:43:41;;;;;;;;;;;;;;;;;;339177;160;856175;-57
2022/06/01 04:44:42;;;;;;;;;;;;;;;;;;341003;157;856302;-59
2022/06/01 04:45:43;;;;;;;;;;;;;;;;;;338198;157;856702;-60
2022/06/01 04:46:45;;;;;;;;;;;;;;;;;;338900;160;855921;-58
2022/06/01 04:47:46;;;;;;;;;;;;;;;;;;339377;160;856400;-58
2022/06/01 04:48:47;;;;;;;;;;;;;;;;;;338532;159;855846;-59
2022/06/01 04:49:49;;;;;;;;;;;;;;;;;;343052;157;857573;-58
2022/06/01 04:50:50;;;;;;;;;;;;;;;;;;341821;157;855844;-55
2022/06/01 04:51:51;;;;;;;;;;;;;;;;;;339045;157;855888;-58
2022/06/01 04:52:53;;;;;;;;;;;;;;;;;;338575;160;856193;-57
2022/06/01 04:53:54;;;;;;;;;;;;;;;;;;338644;160;855956;-57
2022/06/01 04:54:55;;;;;;;;;;;;;;;;;;341870;157;856071;-58
2022/06/01 04:55:57;;;;;;;;;;;;;;;;;;340034;158;855838;-57
2022/06/01 04:56:58;;;;;;;;;;;;;;;;;;336403;158;855136;-58
2022/06/01 04:58:00;;;;;;;;;;;;;;;;;;338514;158;857775;-58
2022/06/01 04:59:01;;;;;;;;;;;;;;;;;;335495;158;855948;-58
2022/06/01 05:00:02;;;;;;;;;;;;;;;;;;343675;156;857336;-59
2022/06/01 05:01:03;;;;;;;;;;;;;;;;;;339637;157;855765;-59
2022/06/01 05:02:05;;;;;;;;;;;;;;;;;;335446;160;856691;-59
2022/06/01 05:03:06;;;;;;;;;;;;;;;;;;338506;157;856053;-59
2022/06/01 05:04:08;;;;;;;;;;;;;;;;;;340761;157;855865;-59
2022/06/01 05:05:09;;;;;;;;;;;;;;;;;;338569;160;856402;-58
2022/06/01 05:06:10;;;;;;;;;;;;;;;;;;337727;157;855900;-57
2022/06/01 05:07:12;;;;;;;;;;;;;;;;;;338149;157;856877;-58
2022/06/01 05:08:13;;;;;;;;;;;;;;;;;;338728;160;855856;-57
2022/06/01 05:09:14;;;;;;;;;;;;;;;;;;339047;157;857557;-58
2022/06/01 05:10:16;;;;;;;;;;;;;;;;;;341254;145;856164;-59
2022/06/01 05:11:17;;;;;;;;;;;;;;;;;;344142;157;855939;-58
2022/06/01 05:12:19;;;;;;;;;;;;;;;;;;341234;157;858327;-58
2022/06/01 05:13:20;;;;;;;;;;;;;;;;;;336942;158;855834;-59
2022/06/01 05:14:21;;;;;;;;;;;;;;;;;;341899;157;855889;-60
2022/06/01 05:15:23;;;;;;;;;;;;;;;;;;342062;157;856227;-60
2022/06/01 05:16:24;;;;;;;;;;;;;;;;;;343019;157;855226;-59
2022/06/01 05:17:25;;;;;;;;;;;;;;;;;;341714;157;857678;-59
2022/06/01 05:18:27;;;;;;;;;;;;;;;;;;339970;157;855652;-60
2022/06/01 05:19:28;;;;;;;;;;;;;;;;;;342053;157;855942;-59
2022/06/01 05:20:29;;;;;;;;;;;;;;;;;;342940;157;855832;-58
2022/06/01 05:21:32;;;;;;;;;;;;;;;;;;340309;157;857110;-58
2022/06/01 05:22:33;;;;;;;;;;;;;;;;;;340962;157;855986;-59
2022/06/01 05:23:34;;;;;;;;;;;;;;;;;;341024;157;855821;-58
2022/06/01 05:24:36;;;;;;;;;;;;;;;;;;342835;157;855648;-60
2022/06/01 05:25:37;;;;;;;;;;;;;;;;;;342676;157;855066;-60
2022/06/01 05:26:38;;;;;;;;;;;;;;;;;;340665;155;855018;-60
2022/06/01 05:27:39;;;;;;;;;;;;;;;;;;340379;157;854975;-60
2022/06/01 05:28:41;;;;;;;;;;;;;;;;;;342495;157;855438;-59
2022/06/01 05:29:42;;;;;;;;;;;;;;;;;;341604;157;855123;-59
2022/06/01 05:32:15;;;;;;;;;;;;;;;;;;350476;144;855119;-79
2022/06/01 05:33:19;;;;;;;;;;;;;;;;;;344060;154;855808;-79
2022/06/01 05:34:21;;;;;;;;;;;;;;;;;;356723;149;856580;-79
2022/06/01 05:35:22;;;;;;;;;;;;;;;;;;354691;152;856636;-79
2022/06/01 05:36:24;;;;;;;;;;;;;;;;;;348332;156;855910;-80
2022/06/01 05:37:25;;;;;;;;;;;;;;;;;;350476;154;856602;-79
2022/06/01 05:38:27;;;;;;;;;;;;;;;;;;344376;154;856008;-78
2022/06/01 05:39:28;;;;;;;;;;;;;;;;;;356040;150;856416;-78
2022/06/01 05:40:30;;;;;;;;;;;;;;;;;;355041;152;855919;-78
2022/06/01 05:41:32;;;;;;;;;;;;;;;;;;351527;152;856192;-77
2022/06/01 05:42:38;;;;;;;;;;;;;;;;;;343025;157;855732;-77
2022/06/01 05:43:40;;;;;;;;;;;;;;;;;;350170;152;855702;-79
2022/06/01 05:44:41;;;;;;;;;;;;;;;;;;351195;151;856153;-80
2022/06/01 05:45:43;;;;;;;;;;;;;;;;;;346233;155;857629;-80
2022/06/01 05:46:44;;;;;;;;;;;;;;;;;;349529;152;855768;-79
2022/06/01 05:47:46;;;;;;;;;;;;;;;;;;350172;151;857590;-78
2022/06/01 05:48:47;;;;;;;;;;;;;;;;;;352054;153;857822;-78
2022/06/01 05:49:49;;;;;;;;;;;;;;;;;;354866;152;855794;-77
2022/06/01 05:50:50;;;;;;;;;;;;;;;;;;352499;153;856256;-78
2022/06/01 05:51:52;;;;;;;;;;;;;;;;;;350467;153;855840;-78
2022/06/01 05:52:53;;;;;;;;;;;;;;;;;;350841;153;856114;-78
2022/06/01 05:53:54;;;;;;;;;;;;;;;;;;348922;153;855853;-78
2022/06/01 05:54:56;;;;;;;;;;;;;;;;;;345702;156;856047;-78
2022/06/01 05:55:57;;;;;;;;;;;;;;;;;;346683;154;855845;-78
2022/06/01 05:56:58;;;;;;;;;;;;;;;;;;347798;154;857495;-77
2022/06/01 05:58:00;;;;;;;;;;;;;;;;;;346831;155;855750;-77
2022/06/01 05:59:01;;;;;;;;;;;;;;;;;;345697;155;855938;-77
2022/06/01 06:00:03;;;;;;;;;;;;;;;;;;347096;154;856099;-77
2022/06/01 06:01:05;;;;;;;;;;;;;;;;;;339291;156;857674;-80
2022/06/01 06:02:07;;;;;;;;;;;;;;;;;;341202;156;855858;-77
2022/06/01 06:03:11;;;;;;;;;;;;;;;;;;343424;155;855883;-79
2022/06/01 06:04:12;;;;;;;;;;;;;;;;;;342650;157;855844;-78
2022/06/01 06:06:34;;;;;;;;;;;;;;;;;;349357;154;855688;-79
2022/06/01 06:07:35;;;;;;;;;;;;;;;;;;348546;154;855840;-78
2022/06/01 06:08:36;;;;;;;;;;;;;;;;;;348680;154;855925;-78
2022/06/01 06:09:38;;;;;;;;;;;;;;;;;;351742;153;857549;-78
2022/06/01 06:10:39;;;;;;;;;;;;;;;;;;352156;152;856116;-78
2022/06/01 06:11:41;;;;;;;;;;;;;;;;;;350757;153;857504;-78
2022/06/01 06:12:42;;;;;;;;;;;;;;;;;;350728;152;856107;-78
2022/06/01 06:13:44;;;;;;;;;;;;;;;;;;351476;152;855795;-78
2022/06/01 06:14:45;;;;;;;;;;;;;;;;;;351460;152;857052;-79
2022/06/01 06:15:47;;;;;;;;;;;;;;;;;;339165;157;857361;-78
2022/06/01 06:16:48;;;;;;;;;;;;;;;;;;340115;156;855902;-78
2022/06/01 06:17:50;;;;;;;;;;;;;;;;;;341887;158;855880;-78
2022/06/01 06:18:55;;;;;;;;;;;;;;;;;;345805;156;855857;-78
2022/06/01 06:19:55;;;;;;;;;;;;;;;;;;346842;153;855913;-78
2022/06/01 06:20:56;;;;;;;;;;;;;;;;;;348590;154;855958;-78
2022/06/01 06:21:58;;;;;;;;;;;;;;;;;;348924;153;855897;-78
2022/06/01 06:22:59;;;;;;;;;;;;;;;;;;349719;153;855815;-78
2022/06/01 06:24:01;;;;;;;;;;;;;;;;;;344904;153;855914;-78
2022/06/01 06:25:03;;;;;;;;;;;;;;;;;;347966;153;855825;-78
2022/06/01 06:26:04;;;;;;;;;;;;;;;;;;347940;154;855942;-77
2022/06/01 06:27:05;;;;;;;;;;;;;;;;;;349181;153;855815;-78
2022/06/01 06:28:07;;;;;;;;;;;;;;;;;;345941;156;859018;-78
2022/06/01 06:29:08;;;;;;;;;;;;;;;;;;350124;153;856667;-78
2022/06/01 06:30:10;;;;;;;;;;;;;;;;;;346457;153;856276;-78
2022/06/01 06:31:11;;;;;;;;;;;;;;;;;;345274;156;856295;-78
2022/06/01 06:32:13;;;;;;;;;;;;;;;;;;348159;153;856175;-79
2022/06/01 06:33:15;;;;;;;;;;;;;;;;;;351666;152;855534;-79
2022/06/01 06:34:16;;;;;;;;;;;;;;;;;;352564;151;855736;-80
2022/06/01 06:35:18;;;;;;;;;;;;;;;;;;350523;153;855987;-79
2022/06/01 06:36:19;;;;;;;;;;;;;;;;;;351767;151;855926;-78
2022/06/01 06:37:21;;;;;;;;;;;;;;;;;;351476;152;855960;-78
2022/06/01 06:38:23;;;;;;;;;;;;;;;;;;352351;151;856863;-78
2022/06/01 06:39:24;;;;;;;;;;;;;;;;;;350309;152;856313;-77
2022/06/01 06:40:26;;;;;;;;;;;;;;;;;;358657;149;855932;-82
2022/06/01 06:41:27;;;;;;;;;;;;;;;;;;351766;152;855815;-81
2022/06/01 06:42:30;;;;;;;;;;;;;;;;;;348498;153;857283;-81
2022/06/01 06:43:32;;;;;;;;;;;;;;;;;;354669;150;855674;-80
2022/06/01 06:44:33;;;;;;;;;;;;;;;;;;356248;150;856600;-83
2022/06/01 06:45:41;;;;;;;;;;;;;;;;;;357989;148;855432;-80
2022/06/01 06:46:42;;;;;;;;;;;;;;;;;;356899;148;855395;-81
2022/06/01 06:47:43;;;;;;;;;;;;;;;;;;358434;151;855495;-81
2022/06/01 06:48:45;;;;;;;;;;;;;;;;;;359117;149;855087;-80
2022/06/01 06:49:46;;;;;;;;;;;;;;;;;;359700;148;855502;-79
2022/06/01 06:50:48;;;;;;;;;;;;;;;;;;360718;148;857437;-80
2022/06/01 06:51:49;;;;;;;;;;;;;;;;;;362419;148;856423;-80
2022/06/01 06:52:51;;;;;;;;;;;;;;;;;;360399;148;855779;-79
2022/06/01 06:53:52;;;;;;;;;;;;;;;;;;358693;151;857184;-82
2022/06/01 06:54:54;;;;;;;;;;;;;;;;;;354276;148;856319;-83
2022/06/01 06:55:56;;;;;;;;;;;;;;;;;;355179;148;855800;-78
2022/06/01 06:56:57;;;;;;;;;;;;;;;;;;358376;151;856796;-79
2022/06/01 06:57:59;;;;;;;;;;;;;;;;;;358256;151;855712;-81
2022/06/01 06:59:00;;;;;;;;;;;;;;;;;;357991;150;856322;-81
2022/06/01 07:00:03;;;;;;;;;;;;;;;;;;363529;148;855618;-81
2022/06/01 07:01:04;;;;;;;;;;;;;;;;;;359665;148;855883;-80
2022/06/01 07:02:06;;;;;;;;;;;;;;;;;;358212;148;855635;-81
2022/06/01 07:03:07;;;;;;;;;;;;;;;;;;356919;148;855925;-82
2022/06/01 07:04:09;;;;;;;;;;;;;;;;;;363403;148;855650;-81
2022/06/01 07:06:08;;;;;;;;;;;;;;;;;;358422;149;855849;-81
2022/06/01 07:06:17;;;;;;;;;;;;;;;;;;352976;151;855996;-82